sensor_id;sensor_type;location;lat;lon;timestamp;temperature;humidity
21759;DHT22;11041;50.854;20.580;2023-06-24T00:00:46;19.50;99.90
21759;DHT22;11041;50.854;20.580;2023-06-24T00:03:33;19.50;99.90
21759;DHT22;11041;50.854;20.580;2023-06-24T00:06:03;19.50;99.90
21759;DHT22;11041;50.854;20.580;2023-06-24T00:08:30;19.50;99.90
21759;DHT22;11041;50.854;20.580;2023-06-24T00:11:01;19.60;99.90
21759;DHT22;11041;50.854;20.580;2023-06-24T00:13:28;19.60;99.90
21759;DHT22;11041;50.854;20.580;2023-06-24T00:15:55;19.60;99.90
21759;DHT22;11041;50.854;20.580;2023-06-24T00:18:22;19.60;99.90
21759;DHT22;11041;50.854;20.580;2023-06-24T00:20:50;19.60;99.90
21759;DHT22;11041;50.854;20.580;2023-06-24T00:23:22;19.50;99.90
21759;DHT22;11041;50.854;20.580;2023-06-24T00:25:53;19.50;99.90
21759;DHT22;11041;50.854;20.580;2023-06-24T00:28:21;19.40;99.90
21759;DHT22;11041;50.854;20.580;2023-06-24T00:30:49;19.20;99.90
21759;DHT22;11041;50.854;20.580;2023-06-24T00:33:15;19.20;99.90
21759;DHT22;11041;50.854;20.580;2023-06-24T00:35:48;19.10;99.90
21759;DHT22;11041;50.854;20.580;2023-06-24T00:38:15;19.00;99.90
21759;DHT22;11041;50.854;20.580;2023-06-24T00:40:42;19.00;99.90
21759;DHT22;11041;50.854;20.580;2023-06-24T00:43:09;19.00;99.90
21759;DHT22;11041;50.854;20.580;2023-06-24T00:45:37;19.00;99.90
21759;DHT22;11041;50.854;20.580;2023-06-24T00:48:04;19.10;99.90
21759;DHT22;11041;50.854;20.580;2023-06-24T00:50:32;19.00;99.90
21759;DHT22;11041;50.854;20.580;2023-06-24T00:52:58;19.00;99.90
21759;DHT22;11041;50.854;20.580;2023-06-24T00:55:25;19.00;99.90
21759;DHT22;11041;50.854;20.580;2023-06-24T00:57:55;18.90;99.90
21759;DHT22;11041;50.854;20.580;2023-06-24T01:00:23;18.80;99.90
21759;DHT22;11041;50.854;20.580;2023-06-24T01:02:50;18.80;99.90
21759;DHT22;11041;50.854;20.580;2023-06-24T01:05:17;18.70;99.90
21759;DHT22;11041;50.854;20.580;2023-06-24T01:07:49;18.70;99.90
21759;DHT22;11041;50.854;20.580;2023-06-24T01:10:23;18.70;99.90
21759;DHT22;11041;50.854;20.580;2023-06-24T01:12:50;18.70;99.90
21759;DHT22;11041;50.854;20.580;2023-06-24T01:15:18;18.60;99.90
21759;DHT22;11041;50.854;20.580;2023-06-24T01:33:05;18.40;99.90
21759;DHT22;11041;50.854;20.580;2023-06-24T01:35:20;18.40;99.90
21759;DHT22;11041;50.854;20.580;2023-06-24T01:37:52;18.50;99.90
21759;DHT22;11041;50.854;20.580;2023-06-24T01:40:43;18.40;99.90
21759;DHT22;11041;50.854;20.580;2023-06-24T01:43:12;18.30;99.90
21759;DHT22;11041;50.854;20.580;2023-06-24T01:45:52;18.30;99.90
21759;DHT22;11041;50.854;20.580;2023-06-24T01:48:27;18.30;99.90
21759;DHT22;11041;50.854;20.580;2023-06-24T01:51:09;18.40;99.90
21759;DHT22;11041;50.854;20.580;2023-06-24T01:53:44;18.40;99.90
21759;DHT22;11041;50.854;20.580;2023-06-24T01:56:36;18.50;99.90
21759;DHT22;11041;50.854;20.580;2023-06-24T01:59:06;18.50;99.90
21759;DHT22;11041;50.854;20.580;2023-06-24T02:01:35;18.50;99.90
21759;DHT22;11041;50.854;20.580;2023-06-24T02:04:08;18.30;99.90
21759;DHT22;11041;50.854;20.580;2023-06-24T02:06:36;18.30;99.90
21759;DHT22;11041;50.854;20.580;2023-06-24T02:09:06;18.30;99.90
21759;DHT22;11041;50.854;20.580;2023-06-24T02:11:34;18.30;99.90
21759;DHT22;11041;50.854;20.580;2023-06-24T02:14:04;18.30;99.90
21759;DHT22;11041;50.854;20.580;2023-06-24T02:16:35;18.40;99.90
21759;DHT22;11041;50.854;20.580;2023-06-24T02:19:03;18.40;99.90
21759;DHT22;11041;50.854;20.580;2023-06-24T02:21:34;18.40;99.90
21759;DHT22;11041;50.854;20.580;2023-06-24T02:24:02;18.50;99.90
21759;DHT22;11041;50.854;20.580;2023-06-24T02:26:30;18.50;99.90
21759;DHT22;11041;50.854;20.580;2023-06-24T02:28:57;18.50;99.90
21759;DHT22;11041;50.854;20.580;2023-06-24T02:31:24;18.50;99.90
21759;DHT22;11041;50.854;20.580;2023-06-24T02:33:51;18.50;99.90
21759;DHT22;11041;50.854;20.580;2023-06-24T02:36:17;18.50;99.90
21759;DHT22;11041;50.854;20.580;2023-06-24T02:38:44;18.50;99.90
21759;DHT22;11041;50.854;20.580;2023-06-24T02:41:10;18.60;99.90
21759;DHT22;11041;50.854;20.580;2023-06-24T02:43:36;18.50;99.90
21759;DHT22;11041;50.854;20.580;2023-06-24T02:46:03;18.50;99.90
21759;DHT22;11041;50.854;20.580;2023-06-24T02:48:32;18.50;99.90
21759;DHT22;11041;50.854;20.580;2023-06-24T02:51:03;18.50;99.90
21759;DHT22;11041;50.854;20.580;2023-06-24T02:53:32;18.50;99.90
21759;DHT22;11041;50.854;20.580;2023-06-24T02:55:59;18.50;99.90
21759;DHT22;11041;50.854;20.580;2023-06-24T02:58:27;18.50;99.90
21759;DHT22;11041;50.854;20.580;2023-06-24T03:00:59;18.50;99.90
21759;DHT22;11041;50.854;20.580;2023-06-24T03:03:31;18.50;99.90
21759;DHT22;11041;50.854;20.580;2023-06-24T03:05:58;18.40;99.90
21759;DHT22;11041;50.854;20.580;2023-06-24T03:08:28;18.40;99.90
21759;DHT22;11041;50.854;20.580;2023-06-24T03:10:55;18.50;99.90
21759;DHT22;11041;50.854;20.580;2023-06-24T03:13:24;18.40;99.90
21759;DHT22;11041;50.854;20.580;2023-06-24T03:15:51;18.30;99.90
21759;DHT22;11041;50.854;20.580;2023-06-24T03:18:19;18.30;99.90
21759;DHT22;11041;50.854;20.580;2023-06-24T03:20:45;18.20;99.90
21759;DHT22;11041;50.854;20.580;2023-06-24T03:23:13;18.10;99.90
21759;DHT22;11041;50.854;20.580;2023-06-24T03:25:39;18.20;99.90
21759;DHT22;11041;50.854;20.580;2023-06-24T03:28:06;18.40;99.90
21759;DHT22;11041;50.854;20.580;2023-06-24T03:30:35;18.50;99.90
21759;DHT22;11041;50.854;20.580;2023-06-24T03:33:02;18.60;99.90
21759;DHT22;11041;50.854;20.580;2023-06-24T03:35:28;18.50;99.90
21759;DHT22;11041;50.854;20.580;2023-06-24T03:37:58;18.30;99.90
21759;DHT22;11041;50.854;20.580;2023-06-24T03:40:24;18.30;99.90
21759;DHT22;11041;50.854;20.580;2023-06-24T03:42:51;18.20;99.90
21759;DHT22;11041;50.854;20.580;2023-06-24T03:45:20;18.20;99.90
21759;DHT22;11041;50.854;20.580;2023-06-24T03:47:51;18.10;99.90
21759;DHT22;11041;50.854;20.580;2023-06-24T03:50:18;18.10;99.90
21759;DHT22;11041;50.854;20.580;2023-06-24T03:52:44;18.20;99.90
21759;DHT22;11041;50.854;20.580;2023-06-24T03:55:11;18.10;99.90
21759;DHT22;11041;50.854;20.580;2023-06-24T03:57:37;18.20;99.90
21759;DHT22;11041;50.854;20.580;2023-06-24T04:00:04;18.20;99.90
21759;DHT22;11041;50.854;20.580;2023-06-24T04:02:39;18.40;99.90
21759;DHT22;11041;50.854;20.580;2023-06-24T04:05:08;18.60;99.90
21759;DHT22;11041;50.854;20.580;2023-06-24T04:07:36;18.70;99.90
21759;DHT22;11041;50.854;20.580;2023-06-24T04:10:03;18.70;99.90
21759;DHT22;11041;50.854;20.580;2023-06-24T04:12:37;18.80;99.90
21759;DHT22;11041;50.854;20.580;2023-06-24T04:15:04;18.70;99.90
21759;DHT22;11041;50.854;20.580;2023-06-24T04:17:31;18.60;99.90
21759;DHT22;11041;50.854;20.580;2023-06-24T04:19:57;18.60;99.90
21759;DHT22;11041;50.854;20.580;2023-06-24T04:22:25;18.70;99.90
21759;DHT22;11041;50.854;20.580;2023-06-24T04:24:52;18.80;99.90
21759;DHT22;11041;50.854;20.580;2023-06-24T04:27:18;18.80;99.90
21759;DHT22;11041;50.854;20.580;2023-06-24T04:29:45;18.80;99.90
21759;DHT22;11041;50.854;20.580;2023-06-24T04:32:12;18.70;99.90
21759;DHT22;11041;50.854;20.580;2023-06-24T04:34:39;18.70;99.90
21759;DHT22;11041;50.854;20.580;2023-06-24T04:37:09;18.70;99.90
21759;DHT22;11041;50.854;20.580;2023-06-24T04:39:36;18.70;99.90
21759;DHT22;11041;50.854;20.580;2023-06-24T04:42:03;18.70;99.90
21759;DHT22;11041;50.854;20.580;2023-06-24T04:44:30;18.70;99.90
21759;DHT22;11041;50.854;20.580;2023-06-24T04:46:56;18.60;99.90
21759;DHT22;11041;50.854;20.580;2023-06-24T04:49:23;18.60;99.90
21759;DHT22;11041;50.854;20.580;2023-06-24T04:51:49;18.60;99.90
21759;DHT22;11041;50.854;20.580;2023-06-24T04:54:16;18.60;99.90
21759;DHT22;11041;50.854;20.580;2023-06-24T04:56:43;18.50;99.90
21759;DHT22;11041;50.854;20.580;2023-06-24T04:59:11;18.50;99.90
21759;DHT22;11041;50.854;20.580;2023-06-24T05:01:37;18.50;99.90
21759;DHT22;11041;50.854;20.580;2023-06-24T05:04:04;18.50;99.90
21759;DHT22;11041;50.854;20.580;2023-06-24T05:06:30;18.50;99.90
21759;DHT22;11041;50.854;20.580;2023-06-24T05:08:57;18.40;99.90
21759;DHT22;11041;50.854;20.580;2023-06-24T05:11:24;18.50;99.90
21759;DHT22;11041;50.854;20.580;2023-06-24T05:13:50;18.40;99.90
21759;DHT22;11041;50.854;20.580;2023-06-24T05:16:17;18.40;99.90
21759;DHT22;11041;50.854;20.580;2023-06-24T05:18:44;18.40;99.90
21759;DHT22;11041;50.854;20.580;2023-06-24T05:21:11;18.50;99.90
21759;DHT22;11041;50.854;20.580;2023-06-24T05:23:38;18.50;99.90
21759;DHT22;11041;50.854;20.580;2023-06-24T05:26:05;18.50;99.90
21759;DHT22;11041;50.854;20.580;2023-06-24T05:28:31;18.50;99.90
21759;DHT22;11041;50.854;20.580;2023-06-24T05:30:58;18.60;99.90
21759;DHT22;11041;50.854;20.580;2023-06-24T05:33:24;18.50;99.90
21759;DHT22;11041;50.854;20.580;2023-06-24T05:35:51;18.60;99.90
21759;DHT22;11041;50.854;20.580;2023-06-24T05:38:18;18.50;99.90
21759;DHT22;11041;50.854;20.580;2023-06-24T05:40:44;18.50;99.90
21759;DHT22;11041;50.854;20.580;2023-06-24T05:43:11;18.50;99.90
21759;DHT22;11041;50.854;20.580;2023-06-24T05:45:38;18.50;99.90
21759;DHT22;11041;50.854;20.580;2023-06-24T05:48:05;18.50;99.90
21759;DHT22;11041;50.854;20.580;2023-06-24T05:50:31;18.50;99.90
21759;DHT22;11041;50.854;20.580;2023-06-24T05:52:58;18.50;99.90
21759;DHT22;11041;50.854;20.580;2023-06-24T05:55:25;18.40;99.90
21759;DHT22;11041;50.854;20.580;2023-06-24T05:57:51;18.50;99.90
21759;DHT22;11041;50.854;20.580;2023-06-24T06:00:18;18.60;99.90
21759;DHT22;11041;50.854;20.580;2023-06-24T06:02:45;18.60;99.90
21759;DHT22;11041;50.854;20.580;2023-06-24T06:05:12;18.60;99.90
21759;DHT22;11041;50.854;20.580;2023-06-24T06:07:38;18.70;99.90
21759;DHT22;11041;50.854;20.580;2023-06-24T06:10:06;18.70;99.90
21759;DHT22;11041;50.854;20.580;2023-06-24T06:12:33;18.70;99.90
21759;DHT22;11041;50.854;20.580;2023-06-24T06:15:00;18.60;99.90
21759;DHT22;11041;50.854;20.580;2023-06-24T06:17:26;18.60;99.90
21759;DHT22;11041;50.854;20.580;2023-06-24T06:19:53;18.60;99.90
21759;DHT22;11041;50.854;20.580;2023-06-24T06:22:19;18.50;99.90
21759;DHT22;11041;50.854;20.580;2023-06-24T06:24:46;18.60;99.90
21759;DHT22;11041;50.854;20.580;2023-06-24T06:27:13;18.60;99.90
21759;DHT22;11041;50.854;20.580;2023-06-24T06:29:40;18.60;99.90
21759;DHT22;11041;50.854;20.580;2023-06-24T06:32:07;18.70;99.90
21759;DHT22;11041;50.854;20.580;2023-06-24T06:34:34;18.60;99.90
21759;DHT22;11041;50.854;20.580;2023-06-24T06:37:00;18.70;99.90
21759;DHT22;11041;50.854;20.580;2023-06-24T06:39:27;18.80;99.90
21759;DHT22;11041;50.854;20.580;2023-06-24T06:41:54;18.80;99.90
21759;DHT22;11041;50.854;20.580;2023-06-24T06:44:21;18.90;99.90
21759;DHT22;11041;50.854;20.580;2023-06-24T06:46:47;18.90;99.90
21759;DHT22;11041;50.854;20.580;2023-06-24T06:49:13;18.90;99.90
21759;DHT22;11041;50.854;20.580;2023-06-24T06:51:40;19.00;99.90
21759;DHT22;11041;50.854;20.580;2023-06-24T06:54:06;19.10;99.90
21759;DHT22;11041;50.854;20.580;2023-06-24T06:56:33;19.20;99.90
21759;DHT22;11041;50.854;20.580;2023-06-24T06:58:59;19.30;99.90
21759;DHT22;11041;50.854;20.580;2023-06-24T07:01:26;19.40;99.90
21759;DHT22;11041;50.854;20.580;2023-06-24T07:03:52;19.50;99.90
21759;DHT22;11041;50.854;20.580;2023-06-24T07:06:19;19.40;99.90
21759;DHT22;11041;50.854;20.580;2023-06-24T07:08:46;19.50;99.90
21759;DHT22;11041;50.854;20.580;2023-06-24T07:11:12;19.50;99.90
21759;DHT22;11041;50.854;20.580;2023-06-24T07:13:39;19.50;99.90
21759;DHT22;11041;50.854;20.580;2023-06-24T07:16:05;19.60;99.90
21759;DHT22;11041;50.854;20.580;2023-06-24T07:18:32;19.80;99.90
21759;DHT22;11041;50.854;20.580;2023-06-24T07:21:00;19.80;99.90
21759;DHT22;11041;50.854;20.580;2023-06-24T07:23:28;19.90;99.90
21759;DHT22;11041;50.854;20.580;2023-06-24T07:25:55;19.90;99.90
21759;DHT22;11041;50.854;20.580;2023-06-24T07:28:21;20.00;99.90
21759;DHT22;11041;50.854;20.580;2023-06-24T07:30:48;19.90;99.90
21759;DHT22;11041;50.854;20.580;2023-06-24T07:33:14;19.90;99.90
21759;DHT22;11041;50.854;20.580;2023-06-24T07:35:41;19.90;99.90
21759;DHT22;11041;50.854;20.580;2023-06-24T07:38:08;20.00;99.90
21759;DHT22;11041;50.854;20.580;2023-06-24T07:40:34;20.00;99.90
21759;DHT22;11041;50.854;20.580;2023-06-24T07:43:01;20.10;99.90
21759;DHT22;11041;50.854;20.580;2023-06-24T07:45:27;20.20;99.90
21759;DHT22;11041;50.854;20.580;2023-06-24T07:47:54;20.30;99.90
21759;DHT22;11041;50.854;20.580;2023-06-24T07:50:20;20.30;99.90
21759;DHT22;11041;50.854;20.580;2023-06-24T07:52:47;20.30;99.90
21759;DHT22;11041;50.854;20.580;2023-06-24T07:55:13;20.30;99.90
21759;DHT22;11041;50.854;20.580;2023-06-24T07:57:40;20.30;99.90
21759;DHT22;11041;50.854;20.580;2023-06-24T08:00:12;20.30;99.90
21759;DHT22;11041;50.854;20.580;2023-06-24T08:02:41;20.30;99.90
21759;DHT22;11041;50.854;20.580;2023-06-24T08:05:08;20.30;99.90
21759;DHT22;11041;50.854;20.580;2023-06-24T08:07:36;20.30;99.90
21759;DHT22;11041;50.854;20.580;2023-06-24T08:10:04;20.30;99.90
21759;DHT22;11041;50.854;20.580;2023-06-24T08:12:31;20.40;99.90
21759;DHT22;11041;50.854;20.580;2023-06-24T08:14:57;20.40;99.90
21759;DHT22;11041;50.854;20.580;2023-06-24T08:17:24;20.50;99.90
21759;DHT22;11041;50.854;20.580;2023-06-24T08:19:51;20.50;99.90
21759;DHT22;11041;50.854;20.580;2023-06-24T08:22:18;20.60;99.90
21759;DHT22;11041;50.854;20.580;2023-06-24T08:24:44;20.60;99.90
21759;DHT22;11041;50.854;20.580;2023-06-24T08:27:11;20.60;99.90
21759;DHT22;11041;50.854;20.580;2023-06-24T08:29:37;20.60;99.90
21759;DHT22;11041;50.854;20.580;2023-06-24T08:32:04;20.60;99.90
21759;DHT22;11041;50.854;20.580;2023-06-24T08:34:33;20.60;99.90
21759;DHT22;11041;50.854;20.580;2023-06-24T08:37:00;20.60;99.90
21759;DHT22;11041;50.854;20.580;2023-06-24T08:39:27;20.70;99.90
21759;DHT22;11041;50.854;20.580;2023-06-24T08:41:54;20.80;99.90
21759;DHT22;11041;50.854;20.580;2023-06-24T08:44:20;20.80;99.90
21759;DHT22;11041;50.854;20.580;2023-06-24T08:46:48;20.80;99.90
21759;DHT22;11041;50.854;20.580;2023-06-24T08:52:00;21.10;99.90
21759;DHT22;11041;50.854;20.580;2023-06-24T08:54:27;20.90;99.90
21759;DHT22;11041;50.854;20.580;2023-06-24T08:56:54;21.10;99.90
21759;DHT22;11041;50.854;20.580;2023-06-24T08:59:21;21.30;99.90
21759;DHT22;11041;50.854;20.580;2023-06-24T09:01:49;21.10;99.90
21759;DHT22;11041;50.854;20.580;2023-06-24T09:04:16;21.50;99.90
21759;DHT22;11041;50.854;20.580;2023-06-24T09:06:43;21.10;99.90
21759;DHT22;11041;50.854;20.580;2023-06-24T09:09:28;21.20;99.90
21759;DHT22;11041;50.854;20.580;2023-06-24T09:11:57;21.20;99.90
21759;DHT22;11041;50.854;20.580;2023-06-24T09:14:26;21.10;99.90
21759;DHT22;11041;50.854;20.580;2023-06-24T09:19:25;21.30;99.90
21759;DHT22;11041;50.854;20.580;2023-06-24T09:21:57;21.30;99.90
21759;DHT22;11041;50.854;20.580;2023-06-24T09:24:29;21.40;99.90
21759;DHT22;11041;50.854;20.580;2023-06-24T09:26:57;21.50;99.90
21759;DHT22;11041;50.854;20.580;2023-06-24T09:29:27;21.60;99.90
21759;DHT22;11041;50.854;20.580;2023-06-24T09:31:55;21.60;99.90
21759;DHT22;11041;50.854;20.580;2023-06-24T09:34:23;21.40;99.90
21759;DHT22;11041;50.854;20.580;2023-06-24T09:36:54;21.40;99.90
21759;DHT22;11041;50.854;20.580;2023-06-24T09:39:22;21.50;99.90
21759;DHT22;11041;50.854;20.580;2023-06-24T09:42:02;21.60;99.90
21759;DHT22;11041;50.854;20.580;2023-06-24T09:44:30;21.60;99.90
21759;DHT22;11041;50.854;20.580;2023-06-24T09:46:57;21.70;99.90
21759;DHT22;11041;50.854;20.580;2023-06-24T09:49:24;21.60;99.90
21759;DHT22;11041;50.854;20.580;2023-06-24T09:51:56;21.50;99.90
21759;DHT22;11041;50.854;20.580;2023-06-24T09:54:26;21.50;99.90
21759;DHT22;11041;50.854;20.580;2023-06-24T09:56:55;21.40;99.90
21759;DHT22;11041;50.854;20.580;2023-06-24T09:59:28;21.30;99.90
21759;DHT22;11041;50.854;20.580;2023-06-24T10:01:57;21.30;99.90
21759;DHT22;11041;50.854;20.580;2023-06-24T10:04:26;21.40;99.90
21759;DHT22;11041;50.854;20.580;2023-06-24T10:06:54;21.20;99.90
21759;DHT22;11041;50.854;20.580;2023-06-24T10:09:21;21.20;99.90
21759;DHT22;11041;50.854;20.580;2023-06-24T10:11:48;21.20;99.90
21759;DHT22;11041;50.854;20.580;2023-06-24T10:14:15;21.30;99.90
21759;DHT22;11041;50.854;20.580;2023-06-24T10:16:43;21.40;99.90
21759;DHT22;11041;50.854;20.580;2023-06-24T10:19:10;21.50;99.90
21759;DHT22;11041;50.854;20.580;2023-06-24T10:21:53;21.50;99.90
21759;DHT22;11041;50.854;20.580;2023-06-24T10:24:40;21.60;99.90
21759;DHT22;11041;50.854;20.580;2023-06-24T10:27:13;21.60;99.90
21759;DHT22;11041;50.854;20.580;2023-06-24T10:29:51;21.40;99.90
21759;DHT22;11041;50.854;20.580;2023-06-24T10:32:21;21.40;99.90
21759;DHT22;11041;50.854;20.580;2023-06-24T10:34:56;21.30;99.90
21759;DHT22;11041;50.854;20.580;2023-06-24T10:37:25;21.20;99.90
21759;DHT22;11041;50.854;20.580;2023-06-24T10:39:59;21.00;99.90
21759;DHT22;11041;50.854;20.580;2023-06-24T10:45:19;21.30;99.90
21759;DHT22;11041;50.854;20.580;2023-06-24T10:47:50;21.30;99.90
21759;DHT22;11041;50.854;20.580;2023-06-24T10:50:25;21.40;99.90
21759;DHT22;11041;50.854;20.580;2023-06-24T10:52:53;21.40;99.90
21759;DHT22;11041;50.854;20.580;2023-06-24T10:55:23;21.40;99.90
21759;DHT22;11041;50.854;20.580;2023-06-24T10:57:54;21.40;99.90
21759;DHT22;11041;50.854;20.580;2023-06-24T11:00:34;21.50;99.90
21759;DHT22;11041;50.854;20.580;2023-06-24T11:03:14;21.60;99.90
21759;DHT22;11041;50.854;20.580;2023-06-24T11:05:44;21.70;99.90
21759;DHT22;11041;50.854;20.580;2023-06-24T11:08:12;21.70;99.90
21759;DHT22;11041;50.854;20.580;2023-06-24T11:10:43;21.70;99.90
21759;DHT22;11041;50.854;20.580;2023-06-24T11:13:14;21.80;99.90
21759;DHT22;11041;50.854;20.580;2023-06-24T11:15:41;21.80;99.90
21759;DHT22;11041;50.854;20.580;2023-06-24T11:18:09;21.80;99.90
21759;DHT22;11041;50.854;20.580;2023-06-24T11:20:40;21.70;99.90
21759;DHT22;11041;50.854;20.580;2023-06-24T11:23:07;21.70;99.90
21759;DHT22;11041;50.854;20.580;2023-06-24T11:25:42;21.30;99.90
21759;DHT22;11041;50.854;20.580;2023-06-24T11:28:17;21.20;99.90
21759;DHT22;11041;50.854;20.580;2023-06-24T11:30:44;21.20;99.90
21759;DHT22;11041;50.854;20.580;2023-06-24T11:33:11;21.00;99.90
21759;DHT22;11041;50.854;20.580;2023-06-24T11:35:37;21.10;99.90
21759;DHT22;11041;50.854;20.580;2023-06-24T11:38:04;21.10;99.90
21759;DHT22;11041;50.854;20.580;2023-06-24T11:40:31;21.20;99.90
21759;DHT22;11041;50.854;20.580;2023-06-24T11:43:00;21.10;99.90
21759;DHT22;11041;50.854;20.580;2023-06-24T11:45:28;21.30;99.90
21759;DHT22;11041;50.854;20.580;2023-06-24T11:48:01;21.00;99.90
21759;DHT22;11041;50.854;20.580;2023-06-24T11:50:31;20.90;99.90
21759;DHT22;11041;50.854;20.580;2023-06-24T11:52:58;21.10;99.90
21759;DHT22;11041;50.854;20.580;2023-06-24T11:55:25;21.10;99.90
21759;DHT22;11041;50.854;20.580;2023-06-24T11:58:01;20.90;99.90
21759;DHT22;11041;50.854;20.580;2023-06-24T12:00:38;20.80;99.90
21759;DHT22;11041;50.854;20.580;2023-06-24T12:03:10;20.80;99.90
21759;DHT22;11041;50.854;20.580;2023-06-24T12:05:39;20.80;99.90
21759;DHT22;11041;50.854;20.580;2023-06-24T12:08:11;20.70;99.90
21759;DHT22;11041;50.854;20.580;2023-06-24T12:10:41;20.50;99.90
21759;DHT22;11041;50.854;20.580;2023-06-24T12:31:16;20.10;99.90
21759;DHT22;11041;50.854;20.580;2023-06-24T12:33:42;20.30;99.90
21759;DHT22;11041;50.854;20.580;2023-06-24T12:36:09;20.20;99.90
21759;DHT22;11041;50.854;20.580;2023-06-24T12:38:35;20.10;99.90
21759;DHT22;11041;50.854;20.580;2023-06-24T12:41:02;20.10;99.90
21759;DHT22;11041;50.854;20.580;2023-06-24T12:43:28;20.10;99.90
21759;DHT22;11041;50.854;20.580;2023-06-24T12:45:55;20.20;99.90
21759;DHT22;11041;50.854;20.580;2023-06-24T12:48:22;20.10;99.90
21759;DHT22;11041;50.854;20.580;2023-06-24T12:50:48;20.10;99.90
21759;DHT22;11041;50.854;20.580;2023-06-24T12:53:20;20.10;99.90
21759;DHT22;11041;50.854;20.580;2023-06-24T12:55:47;20.10;99.90
21759;DHT22;11041;50.854;20.580;2023-06-24T12:58:16;20.10;99.90
21759;DHT22;11041;50.854;20.580;2023-06-24T13:00:45;20.10;99.90
21759;DHT22;11041;50.854;20.580;2023-06-24T13:03:12;20.10;99.90
21759;DHT22;11041;50.854;20.580;2023-06-24T13:05:38;20.00;99.90
21759;DHT22;11041;50.854;20.580;2023-06-24T13:08:05;19.90;99.90
21759;DHT22;11041;50.854;20.580;2023-06-24T13:10:32;20.00;99.90
21759;DHT22;11041;50.854;20.580;2023-06-24T13:12:58;20.10;99.90
21759;DHT22;11041;50.854;20.580;2023-06-24T13:15:26;20.10;99.90
21759;DHT22;11041;50.854;20.580;2023-06-24T13:17:53;20.00;99.90
21759;DHT22;11041;50.854;20.580;2023-06-24T13:20:20;20.00;99.90
21759;DHT22;11041;50.854;20.580;2023-06-24T13:22:46;20.10;99.90
21759;DHT22;11041;50.854;20.580;2023-06-24T13:25:13;20.10;99.90
21759;DHT22;11041;50.854;20.580;2023-06-24T13:27:39;19.90;99.90
21759;DHT22;11041;50.854;20.580;2023-06-24T13:30:07;20.00;99.90
21759;DHT22;11041;50.854;20.580;2023-06-24T13:32:34;19.90;99.90
21759;DHT22;11041;50.854;20.580;2023-06-24T13:35:00;20.00;99.90
21759;DHT22;11041;50.854;20.580;2023-06-24T13:37:27;20.10;99.90
21759;DHT22;11041;50.854;20.580;2023-06-24T13:39:53;19.90;99.90
21759;DHT22;11041;50.854;20.580;2023-06-24T13:42:20;19.70;99.90
21759;DHT22;11041;50.854;20.580;2023-06-24T13:44:46;19.50;99.90
21759;DHT22;11041;50.854;20.580;2023-06-24T13:47:13;19.40;99.90
21759;DHT22;11041;50.854;20.580;2023-06-24T13:49:39;19.30;99.90
21759;DHT22;11041;50.854;20.580;2023-06-24T13:52:06;19.20;99.90
21759;DHT22;11041;50.854;20.580;2023-06-24T13:54:33;19.20;99.90
21759;DHT22;11041;50.854;20.580;2023-06-24T13:57:01;19.10;99.90
21759;DHT22;11041;50.854;20.580;2023-06-24T13:59:28;19.10;99.90
21759;DHT22;11041;50.854;20.580;2023-06-24T14:01:54;19.00;99.90
21759;DHT22;11041;50.854;20.580;2023-06-24T14:04:21;18.90;99.90
21759;DHT22;11041;50.854;20.580;2023-06-24T14:06:47;18.80;99.90
21759;DHT22;11041;50.854;20.580;2023-06-24T14:09:14;18.60;99.90
21759;DHT22;11041;50.854;20.580;2023-06-24T14:11:40;18.60;99.90
21759;DHT22;11041;50.854;20.580;2023-06-24T14:14:07;18.50;99.90
21759;DHT22;11041;50.854;20.580;2023-06-24T14:16:33;18.60;99.90
21759;DHT22;11041;50.854;20.580;2023-06-24T14:19:00;18.70;99.90
21759;DHT22;11041;50.854;20.580;2023-06-24T14:21:26;18.80;99.90
21759;DHT22;11041;50.854;20.580;2023-06-24T14:23:55;18.90;99.90
21759;DHT22;11041;50.854;20.580;2023-06-24T14:26:21;19.00;99.90
21759;DHT22;11041;50.854;20.580;2023-06-24T14:28:48;18.90;99.90
21759;DHT22;11041;50.854;20.580;2023-06-24T14:31:14;18.80;99.90
21759;DHT22;11041;50.854;20.580;2023-06-24T14:33:41;19.00;99.90
21759;DHT22;11041;50.854;20.580;2023-06-24T14:36:08;19.10;99.90
21759;DHT22;11041;50.854;20.580;2023-06-24T14:38:34;19.20;99.90
21759;DHT22;11041;50.854;20.580;2023-06-24T14:41:01;19.20;99.90
21759;DHT22;11041;50.854;20.580;2023-06-24T14:43:27;19.10;99.90
21759;DHT22;11041;50.854;20.580;2023-06-24T14:45:54;19.20;99.90
21759;DHT22;11041;50.854;20.580;2023-06-24T14:48:20;19.30;99.90
21759;DHT22;11041;50.854;20.580;2023-06-24T14:50:47;19.30;99.90
21759;DHT22;11041;50.854;20.580;2023-06-24T14:53:13;19.30;99.90
21759;DHT22;11041;50.854;20.580;2023-06-24T14:55:40;19.30;99.90
21759;DHT22;11041;50.854;20.580;2023-06-24T14:58:06;19.40;99.90
21759;DHT22;11041;50.854;20.580;2023-06-24T15:00:33;19.40;99.90
21759;DHT22;11041;50.854;20.580;2023-06-24T15:02:59;19.30;99.90
21759;DHT22;11041;50.854;20.580;2023-06-24T15:05:26;19.20;99.90
21759;DHT22;11041;50.854;20.580;2023-06-24T15:07:52;19.20;99.90
21759;DHT22;11041;50.854;20.580;2023-06-24T15:10:19;19.30;99.90
21759;DHT22;11041;50.854;20.580;2023-06-24T15:12:45;19.20;99.90
21759;DHT22;11041;50.854;20.580;2023-06-24T15:15:12;19.30;99.90
21759;DHT22;11041;50.854;20.580;2023-06-24T15:17:40;19.40;99.90
21759;DHT22;11041;50.854;20.580;2023-06-24T15:20:12;19.20;99.90
21759;DHT22;11041;50.854;20.580;2023-06-24T15:22:39;19.30;99.90
21759;DHT22;11041;50.854;20.580;2023-06-24T15:25:07;19.30;99.90
21759;DHT22;11041;50.854;20.580;2023-06-24T15:27:34;19.30;99.90
21759;DHT22;11041;50.854;20.580;2023-06-24T15:30:01;19.10;99.90
21759;DHT22;11041;50.854;20.580;2023-06-24T15:32:28;19.00;99.90
21759;DHT22;11041;50.854;20.580;2023-06-24T15:34:55;19.10;99.90
21759;DHT22;11041;50.854;20.580;2023-06-24T15:37:21;19.20;99.90
21759;DHT22;11041;50.854;20.580;2023-06-24T15:39:49;19.20;99.90
21759;DHT22;11041;50.854;20.580;2023-06-24T15:42:16;19.20;99.90
21759;DHT22;11041;50.854;20.580;2023-06-24T15:44:42;19.30;99.90
21759;DHT22;11041;50.854;20.580;2023-06-24T15:47:09;19.30;99.90
21759;DHT22;11041;50.854;20.580;2023-06-24T15:49:36;19.40;99.90
21759;DHT22;11041;50.854;20.580;2023-06-24T15:52:03;19.50;99.90
21759;DHT22;11041;50.854;20.580;2023-06-24T15:54:30;19.50;99.90
21759;DHT22;11041;50.854;20.580;2023-06-24T15:56:56;19.60;99.90
21759;DHT22;11041;50.854;20.580;2023-06-24T15:59:23;19.70;99.90
21759;DHT22;11041;50.854;20.580;2023-06-24T16:01:49;19.90;99.90